New Sweden, Texas
Current Conditions -  °F | °C
As of 11:35 PM on Friday 26 Dec 2014 (Local Time) from KEDC Reporting Station
Haze Haze  
Wind Chill: 61°   Ceiling: 1100
Heat Index: 61°   Visibility: 3mi
Dew Point: 61°   Wind: 5mph
Humidity: 100%   Direction: 170°S
Pressure: 29.96"   Gusts: NA
Location:  30.352°N, 97.5205°W
Report Text: KEDC 270535Z AUTO 17004KT 3SM BR BKN011 OVC030 16/16 A2996 RMK AO2
Loading
Personal Weather Stations






























Interactive Weather Map New forecast layout! Learn more

10-Day Weather Forecast

Advertisements
Track Severe Weather on mobile